createdAt,value
2022-07-26T00:01:49.052Z,24.50
2022-07-26T00:04:21.054Z,24.50
2022-07-26T00:06:53.051Z,24.50
2022-07-26T00:09:25.779Z,24.50
2022-07-26T00:11:57.572Z,24.50
2022-07-26T00:14:30.336Z,24.40
2022-07-26T00:17:03.114Z,24.40
2022-07-26T00:19:34.912Z,24.40
2022-07-26T00:22:26.315Z,24.50
2022-07-26T00:24:58.262Z,24.50
2022-07-26T00:27:31.075Z,24.20
2022-07-26T00:30:08.211Z,24.30
2022-07-26T00:32:41.211Z,24.10
2022-07-26T00:35:13.806Z,24.10
2022-07-26T00:37:47.075Z,24.20
2022-07-26T00:40:19.722Z,24.10
2022-07-26T00:42:52.371Z,23.90
2022-07-26T00:45:24.603Z,24.00
2022-07-26T00:47:57.405Z,23.90
2022-07-26T00:50:29.548Z,23.80
2022-07-26T00:53:01.556Z,23.70
2022-07-26T00:55:34.306Z,23.60
2022-07-26T00:58:06.883Z,23.60
2022-07-26T01:00:39.591Z,23.50
2022-07-26T01:03:11.869Z,23.50
2022-07-26T01:05:43.704Z,23.60
2022-07-26T01:08:16.408Z,23.60
2022-07-26T01:10:48.420Z,23.70
2022-07-26T01:13:24.099Z,24.30
2022-07-26T01:15:56.025Z,23.90
2022-07-26T01:18:28.694Z,23.80
2022-07-26T01:21:08.984Z,23.80
2022-07-26T01:23:47.145Z,23.80
2022-07-26T01:26:19.376Z,23.80
2022-07-26T01:28:51.691Z,23.80
2022-07-26T01:31:24.962Z,23.90
2022-07-26T01:33:57.213Z,23.80
2022-07-26T01:36:29.885Z,23.70
2022-07-26T01:39:02.250Z,23.70
2022-07-26T01:41:37.988Z,23.70
2022-07-26T01:44:11.149Z,23.70
2022-07-26T01:46:43.167Z,23.70
2022-07-26T01:49:15.780Z,23.50
2022-07-26T01:51:48.103Z,23.40
2022-07-26T01:54:22.437Z,23.30
2022-07-26T01:56:57.217Z,23.30
2022-07-26T01:59:29.113Z,23.30
2022-07-26T02:02:05.546Z,23.40
2022-07-26T02:04:56.283Z,23.30
2022-07-26T02:07:45.713Z,23.10
2022-07-26T02:10:18.532Z,23.20
2022-07-26T02:12:50.834Z,23.20
2022-07-26T02:15:23.480Z,23.20
2022-07-26T02:17:55.180Z,23.40
2022-07-26T02:20:27.937Z,23.50
2022-07-26T02:23:04.592Z,23.60
2022-07-26T02:25:37.311Z,23.40
2022-07-26T02:28:10.017Z,23.30
2022-07-26T02:30:42.958Z,23.20
2022-07-26T02:33:16.294Z,23.10
2022-07-26T02:35:48.929Z,23.20
2022-07-26T02:38:20.833Z,23.20
2022-07-26T02:40:54.939Z,23.30
2022-07-26T02:43:27.338Z,23.30
2022-07-26T02:46:01.689Z,23.20
2022-07-26T02:48:35.254Z,23.20
2022-07-26T02:51:07.789Z,23.10
2022-07-26T02:53:40.432Z,23.10
2022-07-26T02:56:12.781Z,23.00
2022-07-26T02:58:44.614Z,23.10
2022-07-26T03:01:17.341Z,23.10
2022-07-26T03:03:51.111Z,23.10
2022-07-26T03:06:24.270Z,23.10
2022-07-26T03:08:56.918Z,23.00
2022-07-26T03:11:29.174Z,23.10
2022-07-26T03:14:00.983Z,23.10
2022-07-26T03:16:35.282Z,23.00
2022-07-26T03:19:07.121Z,23.00
2022-07-26T03:21:39.889Z,23.00
2022-07-26T03:24:11.908Z,23.00
2022-07-26T03:26:44.716Z,23.00
2022-07-26T03:29:17.040Z,23.00
2022-07-26T03:31:49.321Z,23.10
2022-07-26T03:34:21.261Z,23.10
2022-07-26T03:36:53.994Z,23.10
2022-07-26T03:39:25.829Z,23.00
2022-07-26T03:41:58.548Z,23.00
2022-07-26T03:44:30.701Z,22.90
2022-07-26T03:47:03.599Z,22.90
2022-07-26T03:49:36.085Z,22.90
2022-07-26T03:52:08.047Z,23.00
2022-07-26T03:54:40.729Z,23.10
2022-07-26T03:57:12.499Z,23.00
2022-07-26T03:59:45.244Z,22.90
2022-07-26T04:02:17.406Z,22.90
2022-07-26T04:04:50.129Z,22.90
2022-07-26T04:07:22.274Z,22.80
2022-07-26T04:09:58.184Z,22.70
2022-07-26T04:12:29.917Z,22.70
2022-07-26T04:15:02.936Z,22.60
2022-07-26T04:17:41.902Z,22.60
2022-07-26T04:20:14.480Z,22.60
2022-07-26T04:22:46.343Z,22.60
2022-07-26T04:25:19.282Z,22.60
2022-07-26T04:27:51.141Z,22.60
2022-07-26T04:30:24.006Z,22.60
2022-07-26T04:32:56.457Z,22.70
2022-07-26T04:35:28.964Z,22.60
2022-07-26T04:38:03.078Z,22.50
2022-07-26T04:40:34.974Z,22.70
2022-07-26T04:43:15.648Z,22.60
2022-07-26T04:45:49.218Z,22.70
2022-07-26T04:48:21.117Z,22.60
2022-07-26T04:50:53.688Z,22.60
2022-07-26T04:53:25.485Z,22.50
2022-07-26T04:55:58.091Z,22.60
2022-07-26T04:58:29.952Z,22.60
2022-07-26T05:01:09.868Z,22.50
2022-07-26T05:03:42.797Z,22.40
2022-07-26T05:06:15.336Z,22.40
2022-07-26T05:08:47.569Z,22.50
2022-07-26T05:11:19.286Z,22.50
2022-07-26T05:13:52.028Z,22.50
2022-07-26T05:16:23.829Z,22.40
2022-07-26T05:18:56.414Z,22.40
2022-07-26T05:21:28.323Z,22.40
2022-07-26T05:24:01.005Z,22.40
2022-07-26T05:26:32.901Z,22.50
2022-07-26T05:29:05.434Z,22.40
2022-07-26T05:31:37.476Z,22.50
2022-07-26T05:34:10.535Z,22.50
2022-07-26T05:36:42.534Z,22.50
2022-07-26T05:39:16.178Z,22.70
2022-07-26T05:41:48.516Z,22.70
2022-07-26T05:44:20.354Z,22.60
2022-07-26T05:46:54.240Z,22.70
2022-07-26T05:49:26.502Z,22.70
2022-07-26T05:52:27.119Z,22.70
2022-07-26T05:54:59.972Z,22.80
2022-07-26T05:57:32.414Z,22.90
2022-07-26T06:00:05.488Z,23.00
2022-07-26T06:02:44.304Z,23.00
2022-07-26T06:05:16.823Z,23.00
2022-07-26T06:07:48.694Z,22.90
2022-07-26T06:10:21.290Z,22.80
2022-07-26T06:12:53.134Z,23.00
2022-07-26T06:15:25.696Z,23.00
2022-07-26T06:17:57.928Z,23.20
2022-07-26T06:20:29.665Z,23.10
2022-07-26T06:23:02.346Z,22.90
2022-07-26T06:25:34.228Z,23.00
2022-07-26T06:28:09.187Z,23.10
2022-07-26T06:30:43.435Z,23.30
2022-07-26T06:33:16.098Z,23.30
2022-07-26T06:35:47.933Z,23.40
2022-07-26T06:38:20.510Z,23.30
2022-07-26T06:40:53.014Z,22.90
2022-07-26T06:43:25.907Z,23.10
2022-07-26T06:45:57.849Z,23.20
2022-07-26T06:48:30.582Z,23.40
2022-07-26T06:51:03.495Z,23.70
2022-07-26T06:53:36.956Z,24.10
2022-07-26T06:56:09.420Z,24.40
2022-07-26T06:58:42.391Z,24.40
2022-07-26T07:01:55.599Z,24.20
2022-07-26T07:04:08.301Z,24.40
2022-07-26T07:06:40.396Z,26.60
2022-07-26T07:09:13.514Z,27.20
2022-07-26T07:11:52.302Z,26.60
2022-07-26T07:14:31.306Z,25.80
2022-07-26T07:17:04.074Z,24.60
2022-07-26T07:19:45.622Z,24.20
2022-07-26T07:22:18.411Z,25.80
2022-07-26T07:24:50.505Z,25.80
2022-07-26T07:27:23.095Z,25.50
2022-07-26T07:29:55.032Z,24.10
2022-07-26T07:32:29.012Z,24.10
2022-07-26T07:35:00.885Z,25.70
2022-07-26T07:37:53.251Z,27.40
2022-07-26T07:40:26.443Z,28.00
2022-07-26T07:42:59.424Z,27.30
2022-07-26T07:45:31.795Z,27.00
2022-07-26T07:48:04.412Z,27.20
2022-07-26T07:50:36.467Z,26.30
2022-07-26T07:53:09.132Z,26.40
2022-07-26T07:55:46.388Z,26.40
2022-07-26T07:58:20.394Z,27.30
2022-07-26T08:00:53.496Z,28.20
2022-07-26T08:03:38.796Z,29.20
2022-07-26T08:06:11.661Z,30.40
2022-07-26T08:08:44.488Z,28.40
2022-07-26T08:11:16.548Z,27.90
2022-07-26T08:13:49.289Z,28.70
2022-07-26T08:16:21.167Z,28.60
2022-07-26T08:18:57.752Z,28.10
2022-07-26T08:21:30.690Z,29.40
2022-07-26T08:24:02.641Z,30.80
2022-07-26T08:26:35.276Z,30.10
2022-07-26T08:29:07.219Z,29.00
2022-07-26T08:31:39.947Z,30.20
2022-07-26T08:34:12.266Z,29.50
2022-07-26T08:37:06.911Z,30.10
2022-07-26T08:39:37.469Z,29.90
2022-07-26T08:42:17.755Z,28.50
2022-07-26T08:44:55.578Z,27.40
2022-07-26T08:47:37.806Z,27.10
2022-07-26T08:50:15.678Z,27.00
2022-07-26T08:52:47.644Z,26.50
2022-07-26T08:55:21.699Z,26.60
2022-07-26T08:57:54.267Z,26.50
2022-07-26T09:00:30.225Z,26.50
2022-07-26T09:03:04.014Z,26.40
2022-07-26T09:05:37.721Z,27.40
2022-07-26T09:08:30.014Z,28.60
2022-07-26T09:11:03.255Z,27.60
2022-07-26T09:13:51.155Z,26.80
2022-07-26T09:16:24.420Z,26.20
2022-07-26T09:19:14.195Z,25.90
2022-07-26T09:21:49.547Z,25.60
2022-07-26T09:24:36.016Z,25.80
2022-07-26T09:27:14.351Z,25.80
2022-07-26T09:29:51.286Z,25.80
2022-07-26T09:32:26.143Z,25.80
2022-07-26T09:35:49.649Z,26.20
2022-07-26T09:38:15.928Z,26.60
2022-07-26T09:40:50.955Z,26.90
2022-07-26T09:43:24.919Z,27.40
2022-07-26T09:46:06.372Z,27.70
2022-07-26T09:51:43.888Z,28.70
2022-07-26T09:54:29.183Z,28.10
2022-07-26T09:57:02.713Z,29.10
2022-07-26T09:59:34.568Z,29.50
2022-07-26T10:02:07.871Z,28.80
2022-07-26T10:04:43.360Z,29.70
2022-07-26T10:07:17.395Z,29.80
2022-07-26T10:09:57.349Z,29.70
2022-07-26T10:12:32.862Z,30.80
2022-07-26T10:15:05.019Z,30.10
2022-07-26T10:17:42.261Z,30.40
2022-07-26T10:20:41.666Z,30.80
2022-07-26T10:23:33.124Z,29.70
2022-07-26T10:26:07.632Z,30.10
2022-07-26T10:28:42.806Z,30.20
2022-07-26T10:31:21.056Z,30.40
2022-07-26T10:33:56.404Z,29.70
2022-07-26T10:36:31.529Z,31.70
2022-07-26T10:39:09.011Z,30.50
2022-07-26T10:41:46.564Z,30.90
2022-07-26T10:44:26.250Z,30.10
2022-07-26T10:47:08.955Z,29.40
2022-07-26T10:49:59.573Z,28.90
2022-07-26T10:52:32.787Z,29.20
2022-07-26T10:55:07.074Z,30.00
2022-07-26T10:57:45.011Z,29.30
2022-07-26T11:00:21.574Z,29.30
2022-07-26T11:02:56.851Z,29.90
2022-07-26T11:05:32.871Z,29.40
2022-07-26T11:08:09.178Z,29.90
2022-07-26T11:10:47.704Z,30.10
2022-07-26T11:13:24.261Z,30.20
2022-07-26T11:16:02.002Z,29.80
2022-07-26T11:18:36.495Z,29.80
2022-07-26T11:21:14.608Z,29.60
2022-07-26T11:23:47.897Z,29.40
2022-07-26T11:26:26.194Z,29.80
2022-07-26T11:29:06.736Z,29.10
2022-07-26T11:31:50.923Z,29.00
2022-07-26T11:34:34.793Z,28.50
2022-07-26T11:37:06.914Z,28.50
2022-07-26T11:39:39.795Z,28.90
2022-07-26T11:42:19.944Z,28.70
2022-07-26T11:44:53.562Z,28.40
2022-07-26T11:47:26.807Z,28.80
2022-07-26T11:50:18.658Z,28.60
2022-07-26T11:52:55.341Z,28.30
2022-07-26T11:55:28.769Z,28.70
2022-07-26T11:58:07.279Z,28.80
2022-07-26T12:00:39.686Z,29.00
2022-07-26T12:03:11.542Z,29.50
2022-07-26T12:05:44.361Z,29.50
2022-07-26T12:08:16.461Z,28.80
2022-07-26T12:10:55.406Z,29.20
2022-07-26T12:13:27.279Z,29.40
2022-07-26T12:16:13.299Z,29.10
2022-07-26T12:18:51.741Z,28.50
2022-07-26T12:21:41.777Z,28.80
2022-07-26T12:24:54.942Z,29.20
2022-07-26T12:27:30.404Z,29.10
2022-07-26T12:30:03.089Z,28.60
2022-07-26T12:32:37.876Z,28.30
2022-07-26T12:35:16.089Z,28.10
2022-07-26T12:37:48.777Z,28.40
2022-07-26T12:40:28.941Z,28.50
2022-07-26T12:43:02.940Z,28.60
2022-07-26T12:45:35.879Z,28.90
2022-07-26T12:48:13.034Z,29.70
2022-07-26T12:50:45.359Z,29.90
2022-07-26T12:53:17.640Z,29.90
2022-07-26T12:55:49.539Z,30.20
2022-07-26T12:58:22.200Z,29.20
2022-07-26T13:00:54.026Z,29.10
2022-07-26T13:03:26.685Z,28.10
2022-07-26T13:05:58.938Z,28.40
2022-07-26T13:08:31.306Z,28.70
2022-07-26T13:11:03.615Z,28.70
2022-07-26T13:13:35.563Z,28.40
2022-07-26T13:16:12.127Z,27.90
2022-07-26T13:18:44.306Z,28.00
2022-07-26T13:21:17.008Z,28.00
2022-07-26T13:23:48.932Z,27.90
2022-07-26T13:26:21.748Z,27.90
2022-07-26T13:28:54.315Z,27.80
2022-07-26T13:31:27.054Z,28.00
2022-07-26T13:33:59.529Z,28.20
2022-07-26T13:36:32.541Z,28.20
2022-07-26T13:39:05.493Z,28.00
2022-07-26T13:41:38.226Z,27.60
2022-07-26T13:44:10.570Z,27.80
2022-07-26T13:46:44.420Z,27.80
2022-07-26T13:49:16.467Z,28.10
2022-07-26T13:51:58.006Z,28.40
2022-07-26T13:54:34.847Z,28.30
2022-07-26T13:57:08.365Z,28.70
2022-07-26T13:59:40.169Z,28.50
2022-07-26T14:02:13.836Z,28.40
2022-07-26T14:04:45.745Z,28.00
2022-07-26T14:07:18.443Z,28.80
2022-07-26T14:09:50.290Z,28.60
2022-07-26T14:12:23.198Z,28.80
2022-07-26T14:14:55.029Z,28.80
2022-07-26T14:17:27.727Z,29.10
2022-07-26T14:19:59.643Z,29.10
2022-07-26T14:22:32.492Z,28.70
2022-07-26T14:25:05.965Z,28.60
2022-07-26T14:27:39.386Z,28.70
2022-07-26T14:30:12.031Z,28.70
2022-07-26T14:32:44.967Z,29.00
2022-07-26T14:35:17.758Z,30.30
2022-07-26T14:37:49.654Z,29.90
2022-07-26T14:40:22.555Z,29.40
2022-07-26T14:42:54.985Z,29.90
2022-07-26T14:45:27.495Z,28.90
2022-07-26T14:48:00.029Z,29.00
2022-07-26T14:50:47.034Z,29.20
2022-07-26T14:53:25.405Z,29.20
2022-07-26T14:55:58.402Z,29.20
2022-07-26T14:58:31.175Z,29.50
2022-07-26T15:01:03.075Z,29.30
2022-07-26T15:03:36.781Z,29.20
2022-07-26T15:06:08.762Z,28.70
2022-07-26T15:08:41.456Z,29.20
2022-07-26T15:11:14.356Z,29.00
2022-07-26T15:13:47.049Z,29.00
2022-07-26T15:16:18.927Z,28.70
2022-07-26T15:18:51.736Z,28.80
2022-07-26T15:21:23.642Z,28.80
2022-07-26T15:23:56.388Z,28.70
2022-07-26T15:26:28.918Z,28.40
2022-07-26T15:29:01.141Z,28.80
2022-07-26T15:31:36.768Z,28.70
2022-07-26T15:34:11.808Z,28.70
2022-07-26T15:36:43.982Z,28.90
2022-07-26T15:39:17.847Z,28.80
2022-07-26T15:41:50.655Z,28.70
2022-07-26T15:44:23.821Z,28.50
2022-07-26T15:46:58.357Z,28.60
2022-07-26T15:49:30.595Z,28.70
2022-07-26T15:52:04.779Z,28.40
2022-07-26T15:54:36.699Z,28.50
2022-07-26T15:57:09.390Z,28.70
2022-07-26T15:59:41.298Z,28.80
2022-07-26T16:02:14.601Z,28.60
2022-07-26T16:04:46.550Z,28.90
2022-07-26T16:07:19.485Z,28.90
2022-07-26T16:09:51.344Z,29.00
2022-07-26T16:12:24.376Z,28.60
2022-07-26T16:14:56.300Z,28.30
2022-07-26T16:17:28.924Z,27.20
2022-07-26T16:20:01.488Z,27.80
2022-07-26T16:22:34.582Z,28.00
2022-07-26T16:25:07.541Z,28.10
2022-07-26T16:27:44.189Z,28.00
2022-07-26T16:30:17.013Z,27.70
2022-07-26T16:32:48.901Z,27.60
2022-07-26T16:35:21.584Z,27.40
2022-07-26T16:37:53.388Z,27.50
2022-07-26T16:40:26.473Z,27.40
2022-07-26T16:42:58.297Z,27.40
2022-07-26T16:45:30.939Z,27.60
2022-07-26T16:48:04.663Z,27.60
2022-07-26T16:50:37.365Z,27.40
2022-07-26T16:53:13.233Z,27.30
2022-07-26T16:55:47.089Z,27.00
2022-07-26T16:58:20.144Z,27.00
2022-07-26T17:00:52.551Z,26.80
2022-07-26T17:03:24.399Z,27.00
2022-07-26T17:05:57.150Z,27.00
2022-07-26T17:08:29.157Z,27.10
2022-07-26T17:11:02.541Z,27.20
2022-07-26T17:13:34.363Z,27.20
2022-07-26T17:16:08.397Z,27.20
2022-07-26T17:18:40.905Z,27.00
2022-07-26T17:21:12.734Z,27.00
2022-07-26T17:23:45.453Z,26.90
2022-07-26T17:26:19.464Z,26.80
2022-07-26T17:28:51.379Z,26.60
2022-07-26T17:31:23.920Z,26.70
2022-07-26T17:33:55.727Z,26.70
2022-07-26T17:36:30.608Z,26.70
2022-07-26T17:39:03.911Z,26.60
2022-07-26T17:41:36.566Z,26.60
2022-07-26T17:44:16.229Z,26.60
2022-07-26T17:46:50.232Z,26.60
2022-07-26T17:49:22.331Z,26.40
2022-07-26T17:51:57.789Z,26.30
2022-07-26T17:54:29.632Z,26.30
2022-07-26T17:57:02.424Z,26.20
2022-07-26T17:59:34.273Z,26.30
2022-07-26T18:02:07.337Z,26.30
2022-07-26T18:04:40.109Z,26.10
2022-07-26T18:07:12.814Z,26.10
2022-07-26T18:09:44.789Z,26.00
2022-07-26T18:12:17.093Z,26.00
2022-07-26T18:14:48.898Z,26.00
2022-07-26T18:17:21.566Z,25.90
2022-07-26T18:19:53.384Z,25.90
2022-07-26T18:22:26.508Z,25.80
2022-07-26T18:24:58.361Z,25.90
2022-07-26T18:27:30.683Z,26.00
2022-07-26T18:30:03.790Z,26.30
2022-07-26T18:32:36.839Z,26.00
2022-07-26T18:35:09.650Z,25.80
2022-07-26T18:37:41.643Z,25.70
2022-07-26T18:40:14.293Z,25.60
2022-07-26T18:42:46.545Z,25.60
2022-07-26T18:45:28.298Z,25.50
2022-07-26T18:48:01.219Z,25.40
2022-07-26T18:50:36.261Z,25.30
2022-07-26T18:53:08.444Z,25.20
2022-07-26T18:55:41.075Z,25.10
2022-07-26T18:58:14.632Z,25.00
2022-07-26T19:00:47.909Z,25.00
2022-07-26T19:03:21.847Z,24.90
2022-07-26T19:05:53.692Z,24.90
2022-07-26T19:08:26.352Z,25.00
2022-07-26T19:10:58.517Z,24.90
2022-07-26T19:13:30.764Z,25.00
2022-07-26T19:16:02.706Z,25.00
2022-07-26T19:18:35.409Z,24.80
2022-07-26T19:21:07.125Z,24.70
2022-07-26T19:23:42.649Z,24.70
2022-07-26T19:26:14.457Z,24.60
2022-07-26T19:28:47.129Z,24.60
2022-07-26T19:31:19.587Z,24.60
2022-07-26T19:33:51.930Z,24.60
2022-07-26T19:36:25.935Z,24.50
2022-07-26T19:39:01.193Z,24.40
2022-07-26T19:41:33.901Z,24.40
2022-07-26T19:44:05.765Z,24.40
2022-07-26T19:46:38.269Z,24.40
2022-07-26T19:49:12.542Z,24.50
2022-07-26T19:51:45.564Z,24.30
2022-07-26T19:54:17.444Z,24.20
2022-07-26T19:56:50.266Z,24.30
2022-07-26T19:59:23.916Z,24.40
2022-07-26T20:01:58.249Z,24.40
2022-07-26T20:04:30.542Z,24.20
2022-07-26T20:07:04.250Z,24.30
2022-07-26T20:09:36.207Z,24.40
2022-07-26T20:12:09.135Z,24.10
2022-07-26T20:14:41.179Z,24.10
2022-07-26T20:17:14.042Z,24.60
2022-07-26T20:19:45.962Z,24.40
2022-07-26T20:22:18.687Z,23.90
2022-07-26T20:24:55.129Z,23.70
2022-07-26T20:27:27.859Z,23.70
2022-07-26T20:30:01.353Z,23.20
2022-07-26T20:32:34.196Z,23.00
2022-07-26T20:35:08.867Z,23.50
2022-07-26T20:37:43.086Z,23.20
2022-07-26T20:40:15.590Z,23.20
2022-07-26T20:42:50.405Z,22.90
2022-07-26T20:45:23.993Z,22.60
2022-07-26T20:47:57.011Z,22.40
2022-07-26T20:50:29.127Z,22.30
2022-07-26T20:53:01.832Z,22.50
2022-07-26T20:55:33.545Z,21.90
2022-07-26T20:58:07.566Z,21.90
2022-07-26T21:00:39.898Z,21.80
2022-07-26T21:03:13.770Z,21.90
2022-07-26T21:05:46.473Z,21.90
2022-07-26T21:08:18.633Z,21.80
2022-07-26T21:10:51.299Z,21.70
2022-07-26T21:13:23.530Z,22.30
2022-07-26T21:15:55.863Z,22.40
2022-07-26T21:18:29.898Z,22.20
2022-07-26T21:21:02.641Z,22.30
2022-07-26T21:23:34.442Z,22.00
2022-07-26T21:26:07.361Z,22.10
2022-07-26T21:28:39.948Z,21.90
2022-07-26T21:31:15.236Z,22.10
2022-07-26T21:33:47.050Z,22.30
2022-07-26T21:36:19.661Z,22.10
2022-07-26T21:38:51.529Z,22.30
2022-07-26T21:41:24.275Z,22.40
2022-07-26T21:43:56.157Z,21.90
2022-07-26T21:46:28.808Z,21.70
2022-07-26T21:49:00.783Z,21.60
2022-07-26T21:51:33.571Z,22.60
2022-07-26T21:54:14.884Z,22.00
2022-07-26T21:56:48.534Z,21.60
2022-07-26T21:59:21.140Z,22.10
2022-07-26T22:01:53.047Z,21.60
2022-07-26T22:04:25.736Z,22.20
2022-07-26T22:06:57.684Z,21.80
2022-07-26T22:09:30.261Z,21.70
2022-07-26T22:12:02.149Z,21.90
2022-07-26T22:14:34.541Z,21.90
2022-07-26T22:17:06.264Z,22.00
2022-07-26T22:19:40.693Z,21.30
2022-07-26T22:22:13.241Z,21.50
2022-07-26T22:24:45.397Z,21.60
2022-07-26T22:27:17.281Z,21.60
2022-07-26T22:29:49.873Z,22.40
2022-07-26T22:32:22.638Z,21.00
2022-07-26T22:34:55.004Z,21.40
2022-07-26T22:37:26.861Z,21.20
2022-07-26T22:39:59.683Z,20.90
2022-07-26T22:42:31.772Z,21.10
2022-07-26T22:45:09.946Z,21.00
2022-07-26T22:47:55.648Z,20.80
2022-07-26T22:50:28.854Z,20.70
2022-07-26T22:53:01.035Z,20.50
2022-07-26T22:55:33.965Z,20.80
2022-07-26T22:58:08.223Z,21.10
2022-07-26T23:00:40.775Z,20.90
2022-07-26T23:03:19.693Z,20.40
2022-07-26T23:05:53.096Z,20.40
2022-07-26T23:08:46.352Z,20.40
2022-07-26T23:11:19.116Z,20.40
2022-07-26T23:13:50.905Z,20.70
2022-07-26T23:16:31.413Z,20.80
2022-07-26T23:19:04.690Z,20.60
2022-07-26T23:21:36.554Z,20.60
2022-07-26T23:24:09.707Z,21.50
2022-07-26T23:26:41.828Z,21.00
2022-07-26T23:29:14.237Z,20.70
2022-07-26T23:31:47.211Z,21.30
2022-07-26T23:34:19.446Z,20.70
2022-07-26T23:36:51.250Z,21.00
2022-07-26T23:39:23.876Z,20.80
2022-07-26T23:41:56.280Z,20.80
2022-07-26T23:44:30.942Z,20.90
2022-07-26T23:47:02.889Z,21.00
2022-07-26T23:49:35.597Z,21.10
2022-07-26T23:52:07.885Z,21.10
2022-07-26T23:54:39.611Z,20.90
2022-07-26T23:57:12.452Z,21.40
2022-07-26T23:59:44.320Z,21.00
